Meteo Giornale » Osservazioni meteo Svizzera » Locarno

ore: 03:20 - Osservazioni Meteo Locarno
Lat. 46° 10' N Lon. 8° 53' E Alt. 600 metri s.l.m.

poco_nuvoloso Europe/Zurich

9 °C

Poco Nuvoloso

Temp. 24 Ore

7 °C

20 °C

Nord

0 Km/h

Dew point 9 °C

Umidità 100 %

Visibilità  8 Km

Il sole sorge alle ore 07:20

Il sole tramonta alle ore 19:07

Data e Ora Cielo e Fenomeni T °C DP °C Um. % Pres. hPa Vis. km Vento km/h
Oggi h: 03:20 poco_nuvoloso Poco Nuvoloso 9 9 100 1017 8 N 0
Ieri h: 20:50 sereno Sereno 12 11 93 1017 10 N 0
Ieri h: 16:20 nuvoloso Nuvoloso 20 10 52 1016 10 N 3.7
Ieri h: 15:50 nuvoloso Nuvoloso 20 9 49 1016 10 N 5.5
Ieri h: 15:20 nuvoloso Nuvoloso 19 9 52 1016 10 N 5.5
Ieri h: 14:50 nuvoloso Nuvoloso 19 9 52 1016 10 O 9.3
Ieri h: 14:20 poco_nuvoloso Poco Nuvoloso 18 7 48 1016 10 O 9.3
Ieri h: 13:50 sereno Sereno 17 9 59 1016 10 O/SO 9.3
Ieri h: 13:20 nuvoloso Nuvoloso 18 7 48 1017 10 N 5.5
Ieri h: 12:50 nuvoloso Nuvoloso 16 7 55 1017 10 N 5.5
Ieri h: 12:20 nuvoloso Nuvoloso 16 9 63 1017 10 N 5.5
Ieri h: 11:50 molto_nuvoloso Molto Nuvoloso 15 8 62 1017 10 N 5.5
Ieri h: 11:20 molto_nuvoloso Molto Nuvoloso 15 8 62 1017 10 N 1.8
Ieri h: 10:50 molto_nuvoloso Molto Nuvoloso 14 9 71 1018 10 N 5.5
Ieri h: 10:20 molto_nuvoloso Molto Nuvoloso 14 8 67 1017 10 N 5.5
Ieri h: 09:50 molto_nuvoloso Molto Nuvoloso 12 9 81 1017 10 N 3.7
Ieri h: 09:20 molto_nuvoloso Molto Nuvoloso 12 8 76 1017 10 N 3.7
Ieri h: 08:50 molto_nuvoloso Molto Nuvoloso 11 8 81 1017 10 N 3.7
Ieri h: 08:20 molto_nuvoloso Molto Nuvoloso 9 9 100 1016 10 N 1.8
Ieri h: 07:50 molto_nuvoloso Molto Nuvoloso 8 8 100 1016 10 N 0
Ieri h: 06:50 molto_nuvoloso Molto Nuvoloso 7 7 100 1015 10 N 0